sensor_id;sensor_type;location;lat;lon;timestamp;P1;durP1;ratioP1;P2;durP2;ratioP2
11791;SDS011;5953;52.372;9.918;2023-10-09T00:01:44;2.00;;;1.80;;
11791;SDS011;5953;52.372;9.918;2023-10-09T00:04:13;2.67;;;1.73;;
11791;SDS011;5953;52.372;9.918;2023-10-09T00:06:49;2.97;;;1.50;;
11791;SDS011;5953;52.372;9.918;2023-10-09T00:09:37;2.23;;;2.03;;
11791;SDS011;5953;52.372;9.918;2023-10-09T00:12:38;1.93;;;1.20;;
11791;SDS011;5953;52.372;9.918;2023-10-09T00:15:13;3.73;;;2.17;;
11791;SDS011;5953;52.372;9.918;2023-10-09T00:17:59;3.03;;;1.37;;
11791;SDS011;5953;52.372;9.918;2023-10-09T00:20:52;2.23;;;1.60;;
11791;SDS011;5953;52.372;9.918;2023-10-09T00:23:42;1.90;;;1.33;;
11791;SDS011;5953;52.372;9.918;2023-10-09T00:26:17;1.63;;;1.53;;
11791;SDS011;5953;52.372;9.918;2023-10-09T00:31:40;3.33;;;1.90;;
11791;SDS011;5953;52.372;9.918;2023-10-09T00:34:37;2.07;;;1.37;;
11791;SDS011;5953;52.372;9.918;2023-10-09T00:37:10;4.20;;;1.67;;
11791;SDS011;5953;52.372;9.918;2023-10-09T00:39:48;1.77;;;1.67;;
11791;SDS011;5953;52.372;9.918;2023-10-09T00:42:44;2.00;;;1.80;;
11791;SDS011;5953;52.372;9.918;2023-10-09T00:45:19;2.63;;;1.90;;
11791;SDS011;5953;52.372;9.918;2023-10-09T00:47:54;3.47;;;1.47;;
11791;SDS011;5953;52.372;9.918;2023-10-09T00:50:30;3.03;;;1.60;;
11791;SDS011;5953;52.372;9.918;2023-10-09T00:53:07;3.10;;;1.70;;
11791;SDS011;5953;52.372;9.918;2023-10-09T00:55:41;3.03;;;1.57;;
11791;SDS011;5953;52.372;9.918;2023-10-09T00:58:48;3.00;;;1.60;;
11791;SDS011;5953;52.372;9.918;2023-10-09T01:01:31;1.23;;;1.13;;
11791;SDS011;5953;52.372;9.918;2023-10-09T01:04:15;2.93;;;1.50;;
11791;SDS011;5953;52.372;9.918;2023-10-09T01:06:49;4.77;;;2.10;;
11791;SDS011;5953;52.372;9.918;2023-10-09T01:09:35;2.70;;;1.63;;
11791;SDS011;5953;52.372;9.918;2023-10-09T01:12:14;1.77;;;1.47;;
11791;SDS011;5953;52.372;9.918;2023-10-09T01:14:44;1.77;;;1.60;;
11791;SDS011;5953;52.372;9.918;2023-10-09T01:17:20;1.97;;;1.40;;
11791;SDS011;5953;52.372;9.918;2023-10-09T01:20:24;1.87;;;1.60;;
11791;SDS011;5953;52.372;9.918;2023-10-09T01:23:02;2.70;;;1.47;;
11791;SDS011;5953;52.372;9.918;2023-10-09T01:25:44;1.70;;;1.60;;
11791;SDS011;5953;52.372;9.918;2023-10-09T01:28:22;2.90;;;1.50;;
11791;SDS011;5953;52.372;9.918;2023-10-09T01:30:57;3.47;;;1.57;;
11791;SDS011;5953;52.372;9.918;2023-10-09T01:33:39;6.10;;;1.47;;
11791;SDS011;5953;52.372;9.918;2023-10-09T01:36:08;1.87;;;1.47;;
11791;SDS011;5953;52.372;9.918;2023-10-09T01:38:42;2.70;;;1.60;;
11791;SDS011;5953;52.372;9.918;2023-10-09T01:41:11;2.33;;;1.83;;
11791;SDS011;5953;52.372;9.918;2023-10-09T01:43:45;3.67;;;1.87;;
11791;SDS011;5953;52.372;9.918;2023-10-09T01:46:29;3.33;;;1.70;;
11791;SDS011;5953;52.372;9.918;2023-10-09T01:49:08;1.70;;;1.43;;
11791;SDS011;5953;52.372;9.918;2023-10-09T01:51:50;1.93;;;1.40;;
11791;SDS011;5953;52.372;9.918;2023-10-09T01:54:23;2.40;;;1.40;;
11791;SDS011;5953;52.372;9.918;2023-10-09T01:57:10;2.43;;;1.77;;
11791;SDS011;5953;52.372;9.918;2023-10-09T01:59:39;3.20;;;2.00;;
11791;SDS011;5953;52.372;9.918;2023-10-09T02:02:16;4.07;;;1.73;;
11791;SDS011;5953;52.372;9.918;2023-10-09T02:05:02;2.30;;;1.63;;
11791;SDS011;5953;52.372;9.918;2023-10-09T02:07:37;3.10;;;1.90;;
11791;SDS011;5953;52.372;9.918;2023-10-09T02:10:13;3.37;;;2.00;;
11791;SDS011;5953;52.372;9.918;2023-10-09T02:13:02;2.90;;;1.67;;
11791;SDS011;5953;52.372;9.918;2023-10-09T02:15:43;2.60;;;1.80;;
11791;SDS011;5953;52.372;9.918;2023-10-09T02:18:26;4.17;;;1.50;;
11791;SDS011;5953;52.372;9.918;2023-10-09T02:21:07;3.17;;;1.93;;
11791;SDS011;5953;52.372;9.918;2023-10-09T02:23:59;3.17;;;1.83;;
11791;SDS011;5953;52.372;9.918;2023-10-09T02:26:33;3.70;;;2.37;;
11791;SDS011;5953;52.372;9.918;2023-10-09T02:29:27;4.50;;;2.07;;
11791;SDS011;5953;52.372;9.918;2023-10-09T02:32:01;2.83;;;1.90;;
11791;SDS011;5953;52.372;9.918;2023-10-09T02:34:49;2.57;;;1.90;;
11791;SDS011;5953;52.372;9.918;2023-10-09T02:37:28;2.37;;;1.93;;
11791;SDS011;5953;52.372;9.918;2023-10-09T02:40:09;2.97;;;2.10;;
11791;SDS011;5953;52.372;9.918;2023-10-09T02:42:45;4.83;;;2.50;;
11791;SDS011;5953;52.372;9.918;2023-10-09T02:45:16;5.50;;;2.57;;
11791;SDS011;5953;52.372;9.918;2023-10-09T02:47:48;4.93;;;2.27;;
11791;SDS011;5953;52.372;9.918;2023-10-09T02:50:21;5.13;;;2.20;;
11791;SDS011;5953;52.372;9.918;2023-10-09T02:52:55;3.23;;;2.07;;
11791;SDS011;5953;52.372;9.918;2023-10-09T02:55:35;3.30;;;2.17;;
11791;SDS011;5953;52.372;9.918;2023-10-09T02:58:09;5.27;;;2.97;;
11791;SDS011;5953;52.372;9.918;2023-10-09T03:00:47;3.53;;;2.50;;
11791;SDS011;5953;52.372;9.918;2023-10-09T03:03:18;5.20;;;2.37;;
11791;SDS011;5953;52.372;9.918;2023-10-09T03:05:47;3.50;;;2.97;;
11791;SDS011;5953;52.372;9.918;2023-10-09T03:08:19;2.83;;;2.10;;
11791;SDS011;5953;52.372;9.918;2023-10-09T03:10:49;2.63;;;2.43;;
11791;SDS011;5953;52.372;9.918;2023-10-09T03:13:19;3.60;;;2.37;;
11791;SDS011;5953;52.372;9.918;2023-10-09T03:15:48;5.03;;;2.60;;
11791;SDS011;5953;52.372;9.918;2023-10-09T03:18:25;6.50;;;2.23;;
11791;SDS011;5953;52.372;9.918;2023-10-09T03:21:00;3.50;;;2.30;;
11791;SDS011;5953;52.372;9.918;2023-10-09T03:23:29;4.37;;;2.27;;
11791;SDS011;5953;52.372;9.918;2023-10-09T03:26:03;2.60;;;2.30;;
11791;SDS011;5953;52.372;9.918;2023-10-09T03:28:49;3.70;;;2.30;;
11791;SDS011;5953;52.372;9.918;2023-10-09T03:31:27;3.17;;;2.40;;
11791;SDS011;5953;52.372;9.918;2023-10-09T03:33:58;4.73;;;2.30;;
11791;SDS011;5953;52.372;9.918;2023-10-09T03:36:34;5.23;;;2.37;;
11791;SDS011;5953;52.372;9.918;2023-10-09T03:39:11;5.93;;;2.83;;
11791;SDS011;5953;52.372;9.918;2023-10-09T03:41:54;5.70;;;2.70;;
11791;SDS011;5953;52.372;9.918;2023-10-09T03:44:39;5.93;;;3.00;;
11791;SDS011;5953;52.372;9.918;2023-10-09T03:47:13;5.50;;;3.03;;
11791;SDS011;5953;52.372;9.918;2023-10-09T03:49:45;5.10;;;3.30;;
11791;SDS011;5953;52.372;9.918;2023-10-09T03:52:17;5.60;;;3.77;;
11791;SDS011;5953;52.372;9.918;2023-10-09T03:54:59;5.00;;;3.03;;
11791;SDS011;5953;52.372;9.918;2023-10-09T03:57:41;6.10;;;3.67;;
11791;SDS011;5953;52.372;9.918;2023-10-09T04:00:16;6.13;;;4.13;;
11791;SDS011;5953;52.372;9.918;2023-10-09T04:02:58;6.83;;;4.40;;
11791;SDS011;5953;52.372;9.918;2023-10-09T04:05:39;6.73;;;3.80;;
11791;SDS011;5953;52.372;9.918;2023-10-09T04:08:10;7.30;;;4.17;;
11791;SDS011;5953;52.372;9.918;2023-10-09T04:10:58;11.27;;;4.87;;
11791;SDS011;5953;52.372;9.918;2023-10-09T04:14:02;6.87;;;4.63;;
11791;SDS011;5953;52.372;9.918;2023-10-09T04:16:48;7.43;;;4.57;;
11791;SDS011;5953;52.372;9.918;2023-10-09T04:19:33;8.97;;;5.07;;
11791;SDS011;5953;52.372;9.918;2023-10-09T04:22:07;12.30;;;5.63;;
11791;SDS011;5953;52.372;9.918;2023-10-09T04:24:37;9.67;;;5.77;;
11791;SDS011;5953;52.372;9.918;2023-10-09T04:27:14;10.13;;;6.20;;
11791;SDS011;5953;52.372;9.918;2023-10-09T04:29:43;15.90;;;8.40;;
11791;SDS011;5953;52.372;9.918;2023-10-09T04:32:14;12.97;;;7.70;;
11791;SDS011;5953;52.372;9.918;2023-10-09T04:34:44;17.43;;;9.93;;
11791;SDS011;5953;52.372;9.918;2023-10-09T04:37:24;14.27;;;10.37;;
11791;SDS011;5953;52.372;9.918;2023-10-09T04:40:04;19.33;;;9.80;;
11791;SDS011;5953;52.372;9.918;2023-10-09T04:42:40;19.43;;;10.23;;
11791;SDS011;5953;52.372;9.918;2023-10-09T04:45:13;16.90;;;10.33;;
11791;SDS011;5953;52.372;9.918;2023-10-09T04:48:00;20.03;;;11.50;;
11791;SDS011;5953;52.372;9.918;2023-10-09T04:50:52;20.87;;;13.03;;
11791;SDS011;5953;52.372;9.918;2023-10-09T04:53:56;22.87;;;13.23;;
11791;SDS011;5953;52.372;9.918;2023-10-09T04:56:41;25.33;;;13.63;;
11791;SDS011;5953;52.372;9.918;2023-10-09T04:59:21;24.00;;;16.10;;
11791;SDS011;5953;52.372;9.918;2023-10-09T05:01:51;27.67;;;15.80;;
11791;SDS011;5953;52.372;9.918;2023-10-09T05:04:32;30.23;;;15.97;;
11791;SDS011;5953;52.372;9.918;2023-10-09T05:07:07;26.53;;;15.90;;
11791;SDS011;5953;52.372;9.918;2023-10-09T05:09:49;28.47;;;17.43;;
11791;SDS011;5953;52.372;9.918;2023-10-09T05:12:43;34.03;;;19.77;;
11791;SDS011;5953;52.372;9.918;2023-10-09T05:15:14;36.50;;;21.30;;
11791;SDS011;5953;52.372;9.918;2023-10-09T05:17:51;38.33;;;21.30;;
11791;SDS011;5953;52.372;9.918;2023-10-09T05:20:27;33.77;;;20.77;;
11791;SDS011;5953;52.372;9.918;2023-10-09T05:23:13;32.43;;;20.33;;
11791;SDS011;5953;52.372;9.918;2023-10-09T05:25:53;38.63;;;21.57;;
11791;SDS011;5953;52.372;9.918;2023-10-09T05:28:20;35.63;;;21.57;;
11791;SDS011;5953;52.372;9.918;2023-10-09T05:31:14;42.83;;;22.97;;
11791;SDS011;5953;52.372;9.918;2023-10-09T05:33:56;42.10;;;23.53;;
11791;SDS011;5953;52.372;9.918;2023-10-09T05:36:32;37.27;;;21.33;;
11791;SDS011;5953;52.372;9.918;2023-10-09T05:39:02;43.17;;;24.33;;
11791;SDS011;5953;52.372;9.918;2023-10-09T05:41:50;40.83;;;22.97;;
11791;SDS011;5953;52.372;9.918;2023-10-09T05:44:26;41.97;;;24.03;;
11791;SDS011;5953;52.372;9.918;2023-10-09T05:47:12;42.97;;;24.17;;
11791;SDS011;5953;52.372;9.918;2023-10-09T05:49:59;41.73;;;24.47;;
11791;SDS011;5953;52.372;9.918;2023-10-09T05:52:45;47.30;;;25.43;;
11791;SDS011;5953;52.372;9.918;2023-10-09T05:55:33;44.87;;;24.27;;
11791;SDS011;5953;52.372;9.918;2023-10-09T05:58:18;47.20;;;25.90;;
11791;SDS011;5953;52.372;9.918;2023-10-09T06:01:04;44.13;;;24.23;;
11791;SDS011;5953;52.372;9.918;2023-10-09T06:03:55;45.13;;;25.77;;
11791;SDS011;5953;52.372;9.918;2023-10-09T06:06:42;47.97;;;25.83;;
11791;SDS011;5953;52.372;9.918;2023-10-09T06:09:14;42.97;;;22.97;;
11791;SDS011;5953;52.372;9.918;2023-10-09T06:12:03;43.93;;;23.87;;
11791;SDS011;5953;52.372;9.918;2023-10-09T06:14:49;46.57;;;24.67;;
11791;SDS011;5953;52.372;9.918;2023-10-09T06:17:24;40.57;;;23.53;;
11791;SDS011;5953;52.372;9.918;2023-10-09T06:19:56;41.37;;;24.23;;
11791;SDS011;5953;52.372;9.918;2023-10-09T06:22:47;39.30;;;22.77;;
11791;SDS011;5953;52.372;9.918;2023-10-09T06:25:26;38.03;;;22.33;;
11791;SDS011;5953;52.372;9.918;2023-10-09T06:28:00;38.53;;;21.83;;
11791;SDS011;5953;52.372;9.918;2023-10-09T06:30:28;38.77;;;20.97;;
11791;SDS011;5953;52.372;9.918;2023-10-09T06:32:55;30.80;;;19.77;;
11791;SDS011;5953;52.372;9.918;2023-10-09T06:35:34;31.30;;;17.63;;
11791;SDS011;5953;52.372;9.918;2023-10-09T06:38:02;29.53;;;18.50;;
11791;SDS011;5953;52.372;9.918;2023-10-09T06:40:51;37.37;;;21.13;;
11791;SDS011;5953;52.372;9.918;2023-10-09T06:43:51;41.40;;;21.67;;
11791;SDS011;5953;52.372;9.918;2023-10-09T06:46:20;38.37;;;21.57;;
11791;SDS011;5953;52.372;9.918;2023-10-09T06:49:05;40.77;;;22.30;;
11791;SDS011;5953;52.372;9.918;2023-10-09T06:51:55;35.43;;;21.17;;
11791;SDS011;5953;52.372;9.918;2023-10-09T06:54:45;35.17;;;22.43;;
11791;SDS011;5953;52.372;9.918;2023-10-09T06:57:20;37.67;;;21.33;;
11791;SDS011;5953;52.372;9.918;2023-10-09T07:00:15;35.60;;;21.80;;
11791;SDS011;5953;52.372;9.918;2023-10-09T07:03:07;38.20;;;21.50;;
11791;SDS011;5953;52.372;9.918;2023-10-09T07:05:38;41.93;;;22.47;;
11791;SDS011;5953;52.372;9.918;2023-10-09T07:08:27;38.50;;;21.67;;
11791;SDS011;5953;52.372;9.918;2023-10-09T07:11:03;43.87;;;23.27;;
11791;SDS011;5953;52.372;9.918;2023-10-09T07:13:49;36.00;;;22.97;;
11791;SDS011;5953;52.372;9.918;2023-10-09T07:16:22;39.50;;;22.80;;
11791;SDS011;5953;52.372;9.918;2023-10-09T07:18:55;36.93;;;22.33;;
11791;SDS011;5953;52.372;9.918;2023-10-09T07:21:36;35.13;;;22.03;;
11791;SDS011;5953;52.372;9.918;2023-10-09T07:24:17;38.07;;;22.47;;
11791;SDS011;5953;52.372;9.918;2023-10-09T07:27:00;40.00;;;22.13;;
11791;SDS011;5953;52.372;9.918;2023-10-09T07:29:39;44.17;;;23.53;;
11791;SDS011;5953;52.372;9.918;2023-10-09T07:32:21;45.03;;;23.50;;
11791;SDS011;5953;52.372;9.918;2023-10-09T07:35:00;41.70;;;23.50;;
11791;SDS011;5953;52.372;9.918;2023-10-09T07:37:44;45.37;;;23.93;;
11791;SDS011;5953;52.372;9.918;2023-10-09T07:40:23;41.23;;;22.50;;
11791;SDS011;5953;52.372;9.918;2023-10-09T07:43:03;38.47;;;21.33;;
11791;SDS011;5953;52.372;9.918;2023-10-09T07:45:39;36.60;;;22.13;;
11791;SDS011;5953;52.372;9.918;2023-10-09T07:48:30;41.77;;;24.00;;
11791;SDS011;5953;52.372;9.918;2023-10-09T07:51:17;39.37;;;22.90;;
11791;SDS011;5953;52.372;9.918;2023-10-09T07:53:49;38.73;;;23.73;;
11791;SDS011;5953;52.372;9.918;2023-10-09T07:56:31;35.53;;;22.30;;
11791;SDS011;5953;52.372;9.918;2023-10-09T07:59:12;42.17;;;23.40;;
11791;SDS011;5953;52.372;9.918;2023-10-09T08:01:57;37.43;;;22.60;;
11791;SDS011;5953;52.372;9.918;2023-10-09T08:04:40;41.93;;;23.50;;
11791;SDS011;5953;52.372;9.918;2023-10-09T08:07:19;42.30;;;23.17;;
11791;SDS011;5953;52.372;9.918;2023-10-09T08:10:29;40.80;;;23.03;;
11791;SDS011;5953;52.372;9.918;2023-10-09T08:13:20;38.60;;;22.87;;
11791;SDS011;5953;52.372;9.918;2023-10-09T08:16:12;37.17;;;23.20;;
11791;SDS011;5953;52.372;9.918;2023-10-09T08:19:12;41.50;;;23.20;;
11791;SDS011;5953;52.372;9.918;2023-10-09T08:22:02;36.20;;;23.07;;
11791;SDS011;5953;52.372;9.918;2023-10-09T08:25:17;37.20;;;22.60;;
11791;SDS011;5953;52.372;9.918;2023-10-09T08:28:03;34.03;;;21.07;;
11791;SDS011;5953;52.372;9.918;2023-10-09T08:30:54;35.57;;;22.13;;
11791;SDS011;5953;52.372;9.918;2023-10-09T08:33:49;33.13;;;20.67;;
11791;SDS011;5953;52.372;9.918;2023-10-09T08:36:43;36.90;;;20.03;;
11791;SDS011;5953;52.372;9.918;2023-10-09T08:39:45;31.20;;;19.27;;
11791;SDS011;5953;52.372;9.918;2023-10-09T08:42:26;34.43;;;20.27;;
11791;SDS011;5953;52.372;9.918;2023-10-09T08:45:26;31.40;;;20.10;;
11791;SDS011;5953;52.372;9.918;2023-10-09T08:48:32;27.43;;;18.53;;
11791;SDS011;5953;52.372;9.918;2023-10-09T08:51:13;29.80;;;19.07;;
11791;SDS011;5953;52.372;9.918;2023-10-09T08:54:06;30.43;;;19.27;;
11791;SDS011;5953;52.372;9.918;2023-10-09T08:56:52;30.53;;;18.93;;
11791;SDS011;5953;52.372;9.918;2023-10-09T08:59:48;28.53;;;17.87;;
11791;SDS011;5953;52.372;9.918;2023-10-09T09:02:17;34.50;;;18.90;;
11791;SDS011;5953;52.372;9.918;2023-10-09T09:05:16;25.87;;;17.23;;
11791;SDS011;5953;52.372;9.918;2023-10-09T09:08:21;28.70;;;18.00;;
11791;SDS011;5953;52.372;9.918;2023-10-09T09:11:12;24.30;;;17.90;;
11791;SDS011;5953;52.372;9.918;2023-10-09T09:14:13;26.80;;;18.17;;
11791;SDS011;5953;52.372;9.918;2023-10-09T09:16:45;27.53;;;17.10;;
11791;SDS011;5953;52.372;9.918;2023-10-09T09:19:30;27.83;;;17.10;;
11791;SDS011;5953;52.372;9.918;2023-10-09T09:22:15;24.20;;;16.60;;
11791;SDS011;5953;52.372;9.918;2023-10-09T09:24:56;23.63;;;15.70;;
11791;SDS011;5953;52.372;9.918;2023-10-09T09:27:46;24.97;;;15.63;;
11791;SDS011;5953;52.372;9.918;2023-10-09T09:30:25;24.73;;;15.37;;
11791;SDS011;5953;52.372;9.918;2023-10-09T09:37:13;24.30;;;14.67;;
11791;SDS011;5953;52.372;9.918;2023-10-09T09:40:14;23.20;;;14.53;;
11791;SDS011;5953;52.372;9.918;2023-10-09T09:43:26;23.30;;;14.53;;
11791;SDS011;5953;52.372;9.918;2023-10-09T09:47:30;24.00;;;15.73;;
11791;SDS011;5953;52.372;9.918;2023-10-09T09:57:04;24.90;;;15.23;;
11791;SDS011;5953;52.372;9.918;2023-10-09T10:08:09;24.13;;;17.20;;
11791;SDS011;5953;52.372;9.918;2023-10-09T10:10:40;26.73;;;17.60;;
11791;SDS011;5953;52.372;9.918;2023-10-09T10:13:53;27.60;;;17.47;;
11791;SDS011;5953;52.372;9.918;2023-10-09T10:16:34;27.70;;;17.53;;
11791;SDS011;5953;52.372;9.918;2023-10-09T10:22:47;24.73;;;16.07;;
11791;SDS011;5953;52.372;9.918;2023-10-09T10:29:21;27.80;;;18.23;;
11791;SDS011;5953;52.372;9.918;2023-10-09T10:31:51;27.10;;;18.00;;
11791;SDS011;5953;52.372;9.918;2023-10-09T10:47:26;26.50;;;18.10;;
11791;SDS011;5953;52.372;9.918;2023-10-09T10:54:54;27.43;;;17.23;;
11791;SDS011;5953;52.372;9.918;2023-10-09T10:58:18;27.47;;;15.97;;
11791;SDS011;5953;52.372;9.918;2023-10-09T11:08:45;23.43;;;15.07;;
11791;SDS011;5953;52.372;9.918;2023-10-09T11:11:21;23.63;;;16.70;;
11791;SDS011;5953;52.372;9.918;2023-10-09T11:13:49;24.07;;;15.63;;
11791;SDS011;5953;52.372;9.918;2023-10-09T11:16:24;22.93;;;15.07;;
11791;SDS011;5953;52.372;9.918;2023-10-09T11:19:09;21.50;;;15.93;;
11791;SDS011;5953;52.372;9.918;2023-10-09T11:21:50;25.17;;;17.17;;
11791;SDS011;5953;52.372;9.918;2023-10-09T11:24:27;28.53;;;17.27;;
11791;SDS011;5953;52.372;9.918;2023-10-09T11:27:05;22.93;;;15.80;;
11791;SDS011;5953;52.372;9.918;2023-10-09T11:29:33;22.23;;;15.97;;
11791;SDS011;5953;52.372;9.918;2023-10-09T11:32:16;21.10;;;16.93;;
11791;SDS011;5953;52.372;9.918;2023-10-09T11:37:54;20.60;;;16.13;;
11791;SDS011;5953;52.372;9.918;2023-10-09T11:40:31;23.37;;;15.77;;
11791;SDS011;5953;52.372;9.918;2023-10-09T11:43:14;22.53;;;16.47;;
11791;SDS011;5953;52.372;9.918;2023-10-09T11:45:42;22.67;;;16.23;;
11791;SDS011;5953;52.372;9.918;2023-10-09T11:48:22;20.17;;;16.33;;
11791;SDS011;5953;52.372;9.918;2023-10-09T11:50:57;22.17;;;16.87;;
11791;SDS011;5953;52.372;9.918;2023-10-09T11:53:45;19.43;;;15.77;;
11791;SDS011;5953;52.372;9.918;2023-10-09T11:56:23;22.07;;;16.80;;
11791;SDS011;5953;52.372;9.918;2023-10-09T11:58:53;25.87;;;17.97;;
11791;SDS011;5953;52.372;9.918;2023-10-09T12:01:25;21.00;;;16.40;;
11791;SDS011;5953;52.372;9.918;2023-10-09T12:04:02;21.87;;;17.77;;
11791;SDS011;5953;52.372;9.918;2023-10-09T12:06:30;21.77;;;17.40;;
11791;SDS011;5953;52.372;9.918;2023-10-09T12:09:01;22.37;;;17.27;;
11791;SDS011;5953;52.372;9.918;2023-10-09T12:11:33;22.30;;;17.23;;
11791;SDS011;5953;52.372;9.918;2023-10-09T12:14:26;20.33;;;15.87;;
11791;SDS011;5953;52.372;9.918;2023-10-09T12:17:03;22.20;;;16.93;;
11791;SDS011;5953;52.372;9.918;2023-10-09T12:19:33;22.97;;;16.93;;
11791;SDS011;5953;52.372;9.918;2023-10-09T12:22:04;20.13;;;16.63;;
11791;SDS011;5953;52.372;9.918;2023-10-09T12:24:36;18.83;;;16.27;;
11791;SDS011;5953;52.372;9.918;2023-10-09T12:27:11;19.60;;;16.10;;
11791;SDS011;5953;52.372;9.918;2023-10-09T12:29:40;18.53;;;15.47;;
11791;SDS011;5953;52.372;9.918;2023-10-09T12:32:28;21.93;;;16.93;;
11791;SDS011;5953;52.372;9.918;2023-10-09T12:34:56;19.43;;;15.17;;
11791;SDS011;5953;52.372;9.918;2023-10-09T12:37:24;21.47;;;15.93;;
11791;SDS011;5953;52.372;9.918;2023-10-09T12:39:58;21.13;;;16.57;;
11791;SDS011;5953;52.372;9.918;2023-10-09T12:42:38;19.83;;;15.90;;
11791;SDS011;5953;52.372;9.918;2023-10-09T12:45:07;21.30;;;16.47;;
11791;SDS011;5953;52.372;9.918;2023-10-09T12:47:44;20.13;;;17.10;;
11791;SDS011;5953;52.372;9.918;2023-10-09T12:50:17;21.87;;;17.97;;
11791;SDS011;5953;52.372;9.918;2023-10-09T12:52:57;20.43;;;17.07;;
11791;SDS011;5953;52.372;9.918;2023-10-09T12:55:28;19.53;;;17.07;;
11791;SDS011;5953;52.372;9.918;2023-10-09T12:58:06;18.93;;;16.20;;
11791;SDS011;5953;52.372;9.918;2023-10-09T13:00:38;20.00;;;17.53;;
11791;SDS011;5953;52.372;9.918;2023-10-09T13:03:12;22.53;;;17.53;;
11791;SDS011;5953;52.372;9.918;2023-10-09T13:05:55;24.40;;;18.20;;
11791;SDS011;5953;52.372;9.918;2023-10-09T13:08:23;21.53;;;17.73;;
11791;SDS011;5953;52.372;9.918;2023-10-09T13:11:01;19.53;;;17.33;;
11791;SDS011;5953;52.372;9.918;2023-10-09T13:13:39;19.60;;;17.13;;
11791;SDS011;5953;52.372;9.918;2023-10-09T13:16:09;20.77;;;17.37;;
11791;SDS011;5953;52.372;9.918;2023-10-09T13:18:50;21.97;;;16.97;;
11791;SDS011;5953;52.372;9.918;2023-10-09T13:21:19;20.70;;;16.20;;
11791;SDS011;5953;52.372;9.918;2023-10-09T13:23:51;22.43;;;17.20;;
11791;SDS011;5953;52.372;9.918;2023-10-09T13:26:21;20.43;;;15.73;;
11791;SDS011;5953;52.372;9.918;2023-10-09T13:29:01;21.33;;;16.30;;
11791;SDS011;5953;52.372;9.918;2023-10-09T13:31:32;19.57;;;16.20;;
11791;SDS011;5953;52.372;9.918;2023-10-09T13:34:01;18.00;;;16.10;;
11791;SDS011;5953;52.372;9.918;2023-10-09T13:36:38;19.97;;;15.03;;
11791;SDS011;5953;52.372;9.918;2023-10-09T13:39:14;19.83;;;15.60;;
11791;SDS011;5953;52.372;9.918;2023-10-09T13:41:51;16.67;;;14.53;;
11791;SDS011;5953;52.372;9.918;2023-10-09T13:44:26;20.57;;;14.60;;
11791;SDS011;5953;52.372;9.918;2023-10-09T13:46:54;17.30;;;15.47;;
11791;SDS011;5953;52.372;9.918;2023-10-09T13:49:23;18.40;;;15.27;;
11791;SDS011;5953;52.372;9.918;2023-10-09T13:51:56;21.53;;;15.80;;
11791;SDS011;5953;52.372;9.918;2023-10-09T13:54:25;16.37;;;14.13;;
11791;SDS011;5953;52.372;9.918;2023-10-09T13:57:06;17.07;;;14.77;;
11791;SDS011;5953;52.372;9.918;2023-10-09T13:59:38;16.43;;;14.60;;
11791;SDS011;5953;52.372;9.918;2023-10-09T14:02:10;15.80;;;14.10;;
11791;SDS011;5953;52.372;9.918;2023-10-09T14:04:44;17.07;;;15.13;;
11791;SDS011;5953;52.372;9.918;2023-10-09T14:07:12;16.23;;;14.47;;
11791;SDS011;5953;52.372;9.918;2023-10-09T14:09:46;15.33;;;13.23;;
11791;SDS011;5953;52.372;9.918;2023-10-09T14:12:25;16.20;;;13.67;;
11791;SDS011;5953;52.372;9.918;2023-10-09T14:14:57;15.67;;;13.90;;
11791;SDS011;5953;52.372;9.918;2023-10-09T14:17:27;16.03;;;14.30;;
11791;SDS011;5953;52.372;9.918;2023-10-09T14:19:56;16.07;;;13.37;;
11791;SDS011;5953;52.372;9.918;2023-10-09T14:22:44;15.40;;;13.43;;
11791;SDS011;5953;52.372;9.918;2023-10-09T14:25:19;15.67;;;14.03;;
11791;SDS011;5953;52.372;9.918;2023-10-09T14:27:50;16.57;;;14.17;;
11791;SDS011;5953;52.372;9.918;2023-10-09T14:30:21;15.50;;;13.90;;
11791;SDS011;5953;52.372;9.918;2023-10-09T14:32:58;15.47;;;12.67;;
11791;SDS011;5953;52.372;9.918;2023-10-09T14:35:28;16.43;;;13.57;;
11791;SDS011;5953;52.372;9.918;2023-10-09T14:37:59;16.33;;;14.23;;
11791;SDS011;5953;52.372;9.918;2023-10-09T14:40:31;16.37;;;14.53;;
11791;SDS011;5953;52.372;9.918;2023-10-09T14:42:59;16.60;;;13.13;;
11791;SDS011;5953;52.372;9.918;2023-10-09T14:45:28;14.57;;;13.07;;
11791;SDS011;5953;52.372;9.918;2023-10-09T14:47:59;16.90;;;14.10;;
11791;SDS011;5953;52.372;9.918;2023-10-09T14:50:27;14.87;;;13.30;;
11791;SDS011;5953;52.372;9.918;2023-10-09T14:52:55;17.80;;;14.37;;
11791;SDS011;5953;52.372;9.918;2023-10-09T14:55:23;14.67;;;13.23;;
11791;SDS011;5953;52.372;9.918;2023-10-09T14:57:55;14.20;;;12.57;;
11791;SDS011;5953;52.372;9.918;2023-10-09T15:00:25;16.67;;;14.07;;
11791;SDS011;5953;52.372;9.918;2023-10-09T15:02:54;14.70;;;12.20;;
11791;SDS011;5953;52.372;9.918;2023-10-09T15:05:22;13.10;;;11.70;;
11791;SDS011;5953;52.372;9.918;2023-10-09T15:07:52;14.90;;;13.30;;
11791;SDS011;5953;52.372;9.918;2023-10-09T15:10:20;14.33;;;12.83;;
11791;SDS011;5953;52.372;9.918;2023-10-09T15:12:50;16.07;;;12.30;;
11791;SDS011;5953;52.372;9.918;2023-10-09T15:15:18;13.30;;;11.90;;
11791;SDS011;5953;52.372;9.918;2023-10-09T15:17:55;16.60;;;12.27;;
11791;SDS011;5953;52.372;9.918;2023-10-09T15:20:23;13.67;;;12.13;;
11791;SDS011;5953;52.372;9.918;2023-10-09T15:22:51;13.73;;;11.77;;
11791;SDS011;5953;52.372;9.918;2023-10-09T15:25:19;13.10;;;10.63;;
11791;SDS011;5953;52.372;9.918;2023-10-09T15:27:46;13.80;;;12.33;;
11791;SDS011;5953;52.372;9.918;2023-10-09T15:30:14;14.40;;;12.50;;
11791;SDS011;5953;52.372;9.918;2023-10-09T15:32:43;15.20;;;12.03;;
11791;SDS011;5953;52.372;9.918;2023-10-09T15:35:16;14.60;;;12.13;;
11791;SDS011;5953;52.372;9.918;2023-10-09T15:41:25;17.07;;;13.27;;
11791;SDS011;5953;52.372;9.918;2023-10-09T15:45:07;9.80;;;8.80;;
11791;SDS011;5953;52.372;9.918;2023-10-09T15:47:45;6.67;;;5.70;;
11791;SDS011;5953;52.372;9.918;2023-10-09T15:51:10;6.80;;;6.10;;
11791;SDS011;5953;52.372;9.918;2023-10-09T15:54:22;7.20;;;6.50;;
11791;SDS011;5953;52.372;9.918;2023-10-09T16:00:32;8.20;;;7.33;;
11791;SDS011;5953;52.372;9.918;2023-10-09T16:03:00;9.73;;;8.77;;
11791;SDS011;5953;52.372;9.918;2023-10-09T16:05:30;9.50;;;8.37;;
11791;SDS011;5953;52.372;9.918;2023-10-09T16:08:03;9.33;;;8.43;;
11791;SDS011;5953;52.372;9.918;2023-10-09T16:10:31;9.57;;;8.63;;
11791;SDS011;5953;52.372;9.918;2023-10-09T16:13:00;9.97;;;8.97;;
11791;SDS011;5953;52.372;9.918;2023-10-09T16:15:28;8.43;;;7.67;;
11791;SDS011;5953;52.372;9.918;2023-10-09T16:17:56;6.07;;;5.10;;
11791;SDS011;5953;52.372;9.918;2023-10-09T16:20:29;8.17;;;6.20;;
11791;SDS011;5953;52.372;9.918;2023-10-09T16:22:58;6.17;;;5.57;;
11791;SDS011;5953;52.372;9.918;2023-10-09T16:25:32;6.77;;;5.10;;
11791;SDS011;5953;52.372;9.918;2023-10-09T16:28:01;5.77;;;5.10;;
11791;SDS011;5953;52.372;9.918;2023-10-09T16:30:29;6.83;;;4.83;;
11791;SDS011;5953;52.372;9.918;2023-10-09T16:32:57;5.00;;;3.80;;
11791;SDS011;5953;52.372;9.918;2023-10-09T16:35:29;6.57;;;4.60;;
11791;SDS011;5953;52.372;9.918;2023-10-09T16:37:57;5.73;;;4.00;;
11791;SDS011;5953;52.372;9.918;2023-10-09T16:40:24;5.80;;;3.70;;
11791;SDS011;5953;52.372;9.918;2023-10-09T16:42:54;6.60;;;4.17;;
11791;SDS011;5953;52.372;9.918;2023-10-09T16:45:22;6.20;;;4.17;;
11791;SDS011;5953;52.372;9.918;2023-10-09T16:47:52;5.27;;;3.57;;
11791;SDS011;5953;52.372;9.918;2023-10-09T16:50:21;5.40;;;3.70;;
11791;SDS011;5953;52.372;9.918;2023-10-09T16:52:54;6.03;;;3.57;;
11791;SDS011;5953;52.372;9.918;2023-10-09T16:55:22;6.33;;;4.00;;
11791;SDS011;5953;52.372;9.918;2023-10-09T16:57:51;5.43;;;3.53;;
11791;SDS011;5953;52.372;9.918;2023-10-09T17:00:20;5.80;;;4.00;;